createdAt,value
2019-02-25T00:02:59.322Z,3.60
2019-02-25T00:09:02.003Z,3.50
2019-02-25T00:15:04.775Z,3.50
2019-02-25T00:21:07.282Z,3.70
2019-02-25T00:27:11.759Z,3.70
2019-02-25T00:33:13.995Z,3.80
2019-02-25T00:39:18.625Z,3.60
2019-02-25T00:45:20.978Z,3.70
2019-02-25T00:51:23.368Z,3.80
2019-02-25T00:57:25.613Z,3.70
2019-02-25T01:03:27.920Z,3.80
2019-02-25T01:09:30.240Z,3.90
2019-02-25T01:15:32.452Z,3.90
2019-02-25T01:21:34.680Z,4.00
2019-02-25T01:27:39.083Z,4.00
2019-02-25T01:33:41.380Z,3.90
2019-02-25T01:39:43.563Z,4.00
2019-02-25T01:45:45.845Z,4.10
2019-02-25T01:51:51.656Z,4.10
2019-02-25T01:57:53.901Z,4.10
2019-02-25T02:03:56.100Z,4.10
2019-02-25T02:09:59.613Z,4.00
2019-02-25T02:16:01.821Z,4.00
2019-02-25T02:22:04.110Z,4.00
2019-02-25T02:28:08.302Z,4.10
2019-02-25T02:34:10.566Z,4.00
2019-02-25T02:40:13.021Z,3.90
2019-02-25T02:46:23.337Z,3.90
2019-02-25T02:52:25.575Z,3.90
2019-02-25T02:58:27.806Z,4.00
2019-02-25T03:04:31.140Z,3.90
2019-02-25T03:10:33.434Z,4.00
2019-02-25T03:16:35.669Z,4.10
2019-02-25T03:22:37.861Z,4.20
2019-02-25T03:28:42.213Z,4.10
2019-02-25T03:34:44.436Z,4.10
2019-02-25T03:40:46.681Z,4.10
2019-02-25T03:46:49.261Z,4.10
2019-02-25T03:52:51.492Z,3.80
2019-02-25T03:58:53.701Z,3.50
2019-02-25T04:04:56.047Z,3.60
2019-02-25T04:10:58.395Z,3.70
2019-02-25T04:17:00.664Z,3.60
2019-02-25T04:23:04.551Z,3.70
2019-02-25T04:29:06.764Z,3.80
2019-02-25T04:35:10.865Z,3.90
2019-02-25T04:41:13.103Z,3.90
2019-02-25T04:47:15.403Z,4.00
2019-02-25T04:53:17.696Z,4.00
2019-02-25T04:59:19.893Z,3.90
2019-02-25T05:05:22.201Z,3.80
2019-02-25T05:11:26.349Z,3.40
2019-02-25T05:17:28.616Z,3.10
2019-02-25T05:23:31.624Z,2.90
2019-02-25T05:29:33.841Z,2.60
2019-02-25T05:35:36.041Z,2.30
2019-02-25T05:41:40.357Z,2.20
2019-02-25T05:47:42.633Z,2.00
2019-02-25T05:53:44.811Z,1.90
2019-02-25T05:59:46.971Z,1.70
2019-02-25T06:05:49.255Z,1.80
2019-02-25T06:11:51.484Z,2.00
2019-02-25T06:17:53.837Z,2.10
2019-02-25T06:23:56.167Z,2.30
2019-02-25T06:29:58.486Z,2.40
2019-02-25T06:36:00.796Z,2.50
2019-02-25T06:42:03.012Z,2.70
2019-02-25T06:48:08.487Z,2.80
2019-02-25T06:54:10.880Z,2.90
2019-02-25T07:00:15.321Z,3.00
2019-02-25T07:06:22.121Z,3.20
2019-02-25T07:12:26.170Z,3.10
2019-02-25T07:18:46.802Z,3.10
2019-02-25T07:24:53.040Z,3.40
2019-02-25T07:31:11.765Z,3.60
2019-02-25T07:37:21.750Z,3.70
2019-02-25T07:43:36.159Z,3.80
2019-02-25T07:49:42.386Z,4.00
2019-02-25T07:55:49.368Z,4.20
2019-02-25T08:02:08.619Z,4.20
2019-02-25T08:08:12.867Z,4.50
2019-02-25T08:14:35.275Z,4.50
2019-02-25T08:20:39.780Z,4.60
2019-02-25T08:26:47.668Z,4.70
2019-02-25T08:33:01.241Z,5.00
2019-02-25T08:39:10.819Z,5.50
2019-02-25T08:45:18.359Z,6.00
2019-02-25T08:51:22.722Z,6.70
2019-02-25T08:57:24.880Z,6.80
2019-02-25T09:03:27.503Z,7.20
2019-02-25T09:09:30.788Z,7.30
2019-02-25T09:15:33.100Z,7.10
2019-02-25T09:21:35.279Z,7.20
2019-02-25T09:27:37.501Z,7.50
2019-02-25T09:33:40.748Z,7.70
2019-02-25T09:39:43.334Z,8.00
2019-02-25T09:45:47.608Z,8.10
2019-02-25T09:51:56.014Z,8.20
2019-02-25T09:57:58.198Z,8.20
2019-02-25T10:04:00.517Z,8.20
2019-02-25T10:10:03.767Z,8.60
2019-02-25T10:16:06.056Z,9.10
2019-02-25T10:22:08.408Z,9.30
2019-02-25T10:28:10.870Z,9.30
2019-02-25T10:34:13.053Z,10.40
2019-02-25T10:40:17.687Z,11.20
2019-02-25T10:46:19.677Z,11.10
2019-02-25T10:52:22.217Z,11.10
2019-02-25T10:58:25.322Z,11.20
2019-02-25T11:04:28.678Z,11.60
2019-02-25T11:10:32.768Z,12.10
2019-02-25T11:16:35.184Z,11.90
2019-02-25T11:22:39.389Z,12.20
2019-02-25T11:28:43.727Z,12.70
2019-02-25T11:34:46.359Z,13.20
2019-02-25T11:40:48.527Z,13.50
2019-02-25T11:46:50.784Z,13.50
2019-02-25T11:52:54.273Z,13.50
2019-02-25T11:58:56.427Z,13.30
2019-02-25T12:04:59.686Z,13.20
2019-02-25T12:11:02.579Z,13.10
2019-02-25T12:17:05.020Z,12.80
2019-02-25T12:23:07.166Z,12.50
2019-02-25T12:29:11.041Z,12.60
2019-02-25T12:35:13.528Z,13.00
2019-02-25T12:41:15.734Z,12.90
2019-02-25T12:47:17.903Z,12.90
2019-02-25T12:53:21.433Z,13.20
2019-02-25T12:59:23.578Z,13.10
2019-02-25T13:05:25.883Z,13.40
2019-02-25T13:11:28.011Z,14.00
2019-02-25T13:17:30.193Z,14.40
2019-02-25T13:23:32.446Z,14.40
2019-02-25T13:29:34.682Z,14.50
2019-02-25T13:35:37.061Z,14.80
2019-02-25T13:41:39.201Z,15.10
2019-02-25T13:47:41.696Z,15.00
2019-02-25T13:53:44.187Z,14.70
2019-02-25T13:59:48.235Z,14.60
2019-02-25T14:05:50.717Z,14.30
2019-02-25T14:11:54.267Z,14.10
2019-02-25T14:17:57.045Z,14.10
2019-02-25T14:23:59.827Z,14.00
2019-02-25T14:30:02.257Z,14.10
2019-02-25T14:36:04.745Z,14.10
2019-02-25T14:42:09.229Z,14.10
2019-02-25T14:48:15.427Z,14.10
2019-02-25T14:54:16.413Z,14.30
2019-02-25T15:00:23.362Z,14.40
2019-02-25T15:06:25.867Z,14.30
2019-02-25T15:12:31.484Z,14.30
2019-02-25T15:18:33.564Z,14.20
2019-02-25T15:24:35.830Z,14.10
2019-02-25T15:30:38.261Z,13.80
2019-02-25T15:36:40.699Z,13.70
2019-02-25T15:42:43.793Z,13.60
2019-02-25T15:48:46.069Z,13.40
2019-02-25T15:54:48.323Z,13.30
2019-02-25T16:00:50.707Z,13.10
2019-02-25T16:06:53.744Z,13.00
2019-02-25T16:12:57.764Z,12.80
2019-02-25T16:19:01.175Z,12.60
2019-02-25T16:25:05.311Z,12.40
2019-02-25T16:31:10.060Z,12.20
2019-02-25T16:37:15.068Z,11.80
2019-02-25T16:43:18.949Z,11.50
2019-02-25T16:49:21.331Z,11.00
2019-02-25T16:55:27.760Z,10.70
2019-02-25T17:01:32.018Z,10.40
2019-02-25T17:07:37.936Z,10.00
2019-02-25T17:13:41.497Z,9.60
2019-02-25T17:19:43.912Z,9.20
2019-02-25T17:25:46.315Z,8.90
2019-02-25T17:31:48.544Z,8.50
2019-02-25T17:37:50.797Z,8.20
2019-02-25T17:43:55.370Z,8.00
2019-02-25T17:50:01.141Z,7.70
2019-02-25T17:56:03.294Z,7.30
2019-02-25T18:02:08.412Z,7.10
2019-02-25T18:08:13.140Z,7.00
2019-02-25T18:14:17.524Z,6.80
2019-02-25T18:20:23.288Z,6.60
2019-02-25T18:26:28.618Z,6.40
2019-02-25T18:32:32.891Z,6.20
2019-02-25T18:38:35.915Z,6.00
2019-02-25T18:44:38.227Z,5.90
2019-02-25T18:50:45.150Z,5.70
2019-02-25T18:56:47.653Z,5.60
2019-02-25T19:02:53.575Z,5.40
2019-02-25T19:08:58.311Z,5.20
2019-02-25T19:15:02.581Z,5.10
2019-02-25T19:21:06.653Z,5.00
2019-02-25T19:27:10.960Z,4.90
2019-02-25T19:33:19.349Z,4.90
2019-02-25T19:39:21.147Z,4.90
2019-02-25T19:45:25.032Z,4.80
2019-02-25T19:51:29.700Z,4.60
2019-02-25T19:57:32.139Z,4.50
2019-02-25T20:03:37.597Z,4.30
2019-02-25T20:09:41.335Z,4.10
2019-02-25T20:15:44.476Z,4.00
2019-02-25T20:21:48.650Z,3.80
2019-02-25T20:27:52.768Z,3.60
2019-02-25T20:33:59.405Z,3.50
2019-02-25T20:40:02.138Z,3.30
2019-02-25T20:46:06.100Z,3.20
2019-02-25T20:52:08.864Z,3.20
2019-02-25T20:58:13.491Z,3.10
2019-02-25T21:04:18.415Z,3.10
2019-02-25T21:10:22.753Z,3.10
2019-02-25T21:16:28.310Z,3.10
2019-02-25T21:22:31.812Z,2.90
2019-02-25T21:28:38.035Z,2.80
2019-02-25T21:34:40.153Z,2.70
2019-02-25T21:40:43.962Z,2.60
2019-02-25T21:46:49.361Z,2.60
2019-02-25T21:52:50.576Z,2.50
2019-02-25T21:58:53.165Z,2.40
2019-02-25T22:04:57.471Z,2.40
2019-02-25T22:11:12.036Z,2.40
2019-02-25T22:17:03.977Z,2.40
2019-02-25T22:23:07.996Z,2.40
2019-02-25T22:29:12.894Z,2.40
2019-02-25T22:35:15.417Z,2.30
2019-02-25T22:41:18.873Z,2.30
2019-02-25T22:47:23.012Z,2.20
2019-02-25T22:53:25.442Z,2.00
2019-02-25T22:59:27.792Z,1.90
2019-02-25T23:05:32.091Z,1.80
2019-02-25T23:11:34.401Z,1.70
2019-02-25T23:17:37.506Z,1.70
2019-02-25T23:23:40.755Z,1.70
2019-02-25T23:29:42.941Z,1.80
2019-02-25T23:35:46.929Z,1.90
2019-02-25T23:41:49.143Z,1.80
2019-02-25T23:47:55.122Z,1.80
2019-02-25T23:53:57.379Z,1.70
2019-02-25T23:59:59.834Z,1.70
